createdAt,value
2018-07-20T00:01:02.263Z,47.80
2018-07-20T00:03:30.510Z,47.80
2018-07-20T00:05:58.739Z,47.70
2018-07-20T00:08:27.045Z,47.80
2018-07-20T00:10:55.279Z,47.90
2018-07-20T00:13:23.700Z,48.00
2018-07-20T00:15:51.968Z,48.20
2018-07-20T00:18:20.189Z,48.30
2018-07-20T00:20:48.425Z,48.40
2018-07-20T00:23:16.653Z,48.50
2018-07-20T00:25:44.933Z,48.50
2018-07-20T00:28:13.383Z,48.60
2018-07-20T00:30:41.623Z,48.70
2018-07-20T00:33:09.817Z,48.60
2018-07-20T00:35:38.044Z,49.20
2018-07-20T00:38:06.280Z,48.70
2018-07-20T00:40:34.581Z,48.70
2018-07-20T00:43:02.804Z,48.70
2018-07-20T00:45:31.024Z,48.80
2018-07-20T00:47:59.249Z,48.90
2018-07-20T00:50:27.859Z,48.90
2018-07-20T00:52:56.065Z,49.00
2018-07-20T00:55:24.283Z,49.00
2018-07-20T00:57:52.489Z,49.10
2018-07-20T01:00:20.720Z,49.20
2018-07-20T01:02:48.964Z,49.30
2018-07-20T01:05:17.185Z,49.30
2018-07-20T01:07:45.401Z,49.30
2018-07-20T01:10:13.625Z,49.40
2018-07-20T01:12:41.859Z,49.40
2018-07-20T01:15:10.113Z,49.40
2018-07-20T01:17:38.350Z,49.50
2018-07-20T01:20:07.149Z,49.70
2018-07-20T01:22:35.400Z,49.70
2018-07-20T01:25:03.657Z,49.80
2018-07-20T01:27:31.991Z,49.80
2018-07-20T01:30:00.225Z,49.80
2018-07-20T01:32:28.524Z,49.90
2018-07-20T01:34:56.742Z,50.00
2018-07-20T01:37:24.965Z,50.10
2018-07-20T01:39:53.211Z,50.10
2018-07-20T01:42:21.437Z,50.10
2018-07-20T01:44:49.649Z,50.20
2018-07-20T01:47:17.919Z,50.30
2018-07-20T01:49:46.146Z,50.40
2018-07-20T01:54:42.430Z,50.50
2018-07-20T01:57:10.617Z,50.50
2018-07-20T01:59:38.840Z,50.60
2018-07-20T02:02:07.082Z,50.70
2018-07-20T02:04:35.288Z,50.80
2018-07-20T02:07:03.533Z,50.90
2018-07-20T02:09:31.753Z,50.90
2018-07-20T02:11:59.933Z,51.10
2018-07-20T02:14:28.302Z,51.20
2018-07-20T02:16:56.569Z,51.20
2018-07-20T02:19:24.785Z,51.20
2018-07-20T02:21:52.989Z,51.20
2018-07-20T02:24:21.203Z,51.30
2018-07-20T02:26:49.452Z,51.30
2018-07-20T02:29:17.687Z,51.30
2018-07-20T02:31:45.873Z,51.50
2018-07-20T02:34:14.097Z,51.60
2018-07-20T02:36:42.301Z,51.70
2018-07-20T02:39:12.816Z,51.70
2018-07-20T02:41:41.613Z,51.80
2018-07-20T02:44:10.585Z,51.90
2018-07-20T02:46:39.192Z,52.00
2018-07-20T02:49:07.698Z,51.90
2018-07-20T02:51:35.898Z,51.90
2018-07-20T02:54:05.130Z,52.00
2018-07-20T02:56:33.525Z,51.90
2018-07-20T02:59:01.797Z,52.10
2018-07-20T03:01:30.182Z,52.20
2018-07-20T03:03:58.381Z,52.30
2018-07-20T03:06:26.594Z,52.40
2018-07-20T03:08:54.919Z,52.40
2018-07-20T03:11:23.105Z,52.50
2018-07-20T03:13:51.313Z,52.50
2018-07-20T03:16:19.619Z,52.50
2018-07-20T03:18:47.854Z,52.50
2018-07-20T03:21:16.644Z,52.50
2018-07-20T03:23:44.853Z,52.60
2018-07-20T03:26:13.074Z,52.50
2018-07-20T03:28:41.267Z,52.60
2018-07-20T03:31:09.519Z,52.70
2018-07-20T03:33:37.769Z,52.80
2018-07-20T03:36:06.193Z,52.80
2018-07-20T03:38:34.426Z,52.80
2018-07-20T03:41:02.658Z,52.80
2018-07-20T03:43:30.882Z,52.90
2018-07-20T03:45:59.106Z,52.90
2018-07-20T03:48:27.317Z,53.00
2018-07-20T03:50:55.520Z,53.00
2018-07-20T03:53:23.746Z,53.00
2018-07-20T03:55:51.950Z,53.10
2018-07-20T03:58:20.340Z,53.20
2018-07-20T04:00:48.780Z,53.20
2018-07-20T04:03:17.003Z,53.20
2018-07-20T04:05:45.213Z,53.30
2018-07-20T04:08:13.523Z,53.30
2018-07-20T04:10:41.710Z,53.40
2018-07-20T04:13:09.934Z,53.40
2018-07-20T04:15:38.138Z,53.40
2018-07-20T04:18:06.378Z,53.10
2018-07-20T04:20:34.613Z,53.50
2018-07-20T04:23:03.065Z,53.50
2018-07-20T04:25:31.250Z,53.50
2018-07-20T04:27:59.453Z,53.50
2018-07-20T04:30:27.649Z,53.60
2018-07-20T04:32:55.874Z,53.60
2018-07-20T04:35:24.119Z,53.80
2018-07-20T04:37:53.337Z,54.30
2018-07-20T04:40:21.587Z,53.80
2018-07-20T04:42:49.790Z,53.80
2018-07-20T04:45:17.997Z,53.70
2018-07-20T04:47:46.217Z,53.70
2018-07-20T04:50:14.433Z,53.70
2018-07-20T04:52:42.626Z,53.70
2018-07-20T04:55:10.833Z,53.80
2018-07-20T04:57:39.057Z,53.80
2018-07-20T05:00:07.280Z,53.80
2018-07-20T05:02:35.510Z,53.80
2018-07-20T05:05:03.737Z,53.70
2018-07-20T05:09:59.951Z,53.60
2018-07-20T05:12:28.190Z,53.60
2018-07-20T05:14:56.414Z,53.50
2018-07-20T05:17:24.614Z,53.50
2018-07-20T05:19:52.809Z,53.50
2018-07-20T05:22:21.029Z,53.40
2018-07-20T05:24:49.234Z,53.40
2018-07-20T05:27:17.454Z,53.30
2018-07-20T05:29:45.661Z,53.30
2018-07-20T05:32:13.926Z,53.40
2018-07-20T05:34:42.173Z,53.40
2018-07-20T05:37:10.385Z,53.40
2018-07-20T05:39:38.761Z,53.30
2018-07-20T05:42:06.978Z,53.10
2018-07-20T05:44:35.212Z,53.00
2018-07-20T05:47:03.500Z,52.80
2018-07-20T05:49:31.869Z,52.50
2018-07-20T05:52:00.329Z,52.20
2018-07-20T05:54:28.820Z,52.10
2018-07-20T05:56:57.273Z,51.80
2018-07-20T05:59:26.122Z,51.50
2018-07-20T06:01:55.196Z,51.50
2018-07-20T06:04:23.930Z,51.50
2018-07-20T06:09:20.894Z,51.30
2018-07-20T06:11:49.687Z,51.10
2018-07-20T06:14:18.206Z,51.00
2018-07-20T06:16:46.767Z,51.10
2018-07-20T06:19:15.138Z,51.10
2018-07-20T06:21:43.549Z,51.10
2018-07-20T06:26:40.108Z,51.00
2018-07-20T06:29:08.470Z,50.90
2018-07-20T06:31:36.815Z,50.80
2018-07-20T06:34:05.386Z,50.70
2018-07-20T06:36:34.011Z,50.60
2018-07-20T06:39:02.728Z,50.50
2018-07-20T06:41:31.331Z,50.40
2018-07-20T06:43:59.829Z,50.40
2018-07-20T06:46:28.519Z,50.20
2018-07-20T06:48:56.812Z,50.00
2018-07-20T06:51:25.279Z,50.10
2018-07-20T06:53:53.780Z,49.90
2018-07-20T06:56:22.182Z,49.90
2018-07-20T06:58:50.414Z,49.70
2018-07-20T07:01:18.634Z,49.70
2018-07-20T07:03:46.825Z,49.50
2018-07-20T07:06:15.105Z,49.50
2018-07-20T07:08:43.362Z,49.30
2018-07-20T07:11:11.568Z,49.30
2018-07-20T07:13:39.791Z,49.20
2018-07-20T07:16:08.018Z,49.10
2018-07-20T07:18:36.305Z,49.10
2018-07-20T07:21:05.710Z,49.20
2018-07-20T07:23:35.031Z,49.10
2018-07-20T07:26:03.272Z,49.00
2018-07-20T07:28:31.477Z,48.70
2018-07-20T07:30:59.869Z,48.60
2018-07-20T07:33:28.316Z,48.50
2018-07-20T07:35:56.600Z,48.40
2018-07-20T07:38:25.067Z,48.40
2018-07-20T07:40:53.266Z,48.30
2018-07-20T07:43:21.504Z,48.10
2018-07-20T07:45:49.904Z,47.90
2018-07-20T07:48:18.281Z,47.70
2018-07-20T07:50:46.604Z,47.60
2018-07-20T07:53:15.037Z,47.40
2018-07-20T07:55:43.549Z,47.50
2018-07-20T07:58:12.104Z,47.40
2018-07-20T08:00:40.380Z,47.30
2018-07-20T08:03:08.899Z,47.20
2018-07-20T08:05:37.074Z,47.10
2018-07-20T08:08:05.983Z,47.10
2018-07-20T08:10:35.047Z,47.00
2018-07-20T08:13:04.154Z,47.00
2018-07-20T08:15:32.899Z,47.00
2018-07-20T08:18:01.278Z,46.90
2018-07-20T08:20:29.640Z,46.90
2018-07-20T08:22:58.106Z,46.80
2018-07-20T08:25:26.646Z,46.60
2018-07-20T08:27:55.417Z,46.40
2018-07-20T08:30:24.056Z,46.40
2018-07-20T08:32:52.502Z,46.20
2018-07-20T08:35:20.882Z,46.30
2018-07-20T08:37:49.427Z,46.00
2018-07-20T08:40:17.913Z,45.90
2018-07-20T08:42:46.366Z,45.80
2018-07-20T08:45:14.785Z,45.70
2018-07-20T08:47:43.072Z,45.50
2018-07-20T08:50:11.425Z,45.40
2018-07-20T08:52:39.776Z,45.30
2018-07-20T08:55:08.103Z,45.00
2018-07-20T08:57:36.768Z,45.00
2018-07-20T09:00:06.299Z,44.90
2018-07-20T09:02:35.164Z,44.70
2018-07-20T09:05:04.320Z,44.60
2018-07-20T09:07:32.851Z,44.30
2018-07-20T09:10:01.163Z,44.10
2018-07-20T09:12:29.721Z,44.00
2018-07-20T09:14:57.985Z,43.80
2018-07-20T09:17:26.345Z,43.50
2018-07-20T09:19:54.965Z,43.20
2018-07-20T09:22:23.266Z,43.00
2018-07-20T09:24:51.834Z,42.90
2018-07-20T09:27:20.386Z,42.90
2018-07-20T09:29:48.691Z,42.60
2018-07-20T09:32:16.998Z,42.40
2018-07-20T09:34:45.429Z,42.00
2018-07-20T09:37:13.886Z,41.80
2018-07-20T09:39:42.267Z,41.50
2018-07-20T09:42:10.654Z,41.00
2018-07-20T09:44:39.594Z,40.90
2018-07-20T09:47:08.471Z,40.70
2018-07-20T09:49:36.825Z,40.50
2018-07-20T09:52:05.289Z,40.40
2018-07-20T09:54:33.873Z,40.30
2018-07-20T09:57:02.582Z,40.30
2018-07-20T09:59:30.889Z,40.10
2018-07-20T10:01:59.117Z,39.90
2018-07-20T10:04:27.347Z,39.60
2018-07-20T10:09:23.574Z,39.30
2018-07-20T10:11:51.908Z,39.10
2018-07-20T10:14:20.593Z,38.90
2018-07-20T10:16:48.825Z,38.60
2018-07-20T10:19:17.060Z,38.40
2018-07-20T10:21:45.303Z,38.20
2018-07-20T10:24:13.500Z,38.10
2018-07-20T10:26:41.731Z,37.90
2018-07-20T10:29:09.941Z,37.60
2018-07-20T10:31:38.157Z,37.40
2018-07-20T10:34:06.392Z,37.30
2018-07-20T10:36:34.684Z,37.20
2018-07-20T10:39:02.944Z,37.00
2018-07-20T10:41:31.177Z,36.80
2018-07-20T10:43:59.498Z,36.80
2018-07-20T10:46:27.737Z,37.40
2018-07-20T10:48:56.020Z,36.70
2018-07-20T10:51:24.277Z,36.60
2018-07-20T10:53:52.807Z,36.60
2018-07-20T10:56:21.413Z,36.70
2018-07-20T10:58:49.841Z,36.50
2018-07-20T11:01:18.110Z,36.40
2018-07-20T11:03:46.364Z,36.30
2018-07-20T11:06:14.696Z,36.30
2018-07-20T11:08:42.917Z,36.20
2018-07-20T11:11:11.141Z,36.00
2018-07-20T11:13:39.422Z,35.80
2018-07-20T11:16:07.904Z,35.70
2018-07-20T11:18:36.594Z,35.70
2018-07-20T11:21:05.261Z,35.90
2018-07-20T11:23:33.652Z,35.80
2018-07-20T11:26:02.364Z,35.60
2018-07-20T11:28:30.952Z,35.30
2018-07-20T11:30:59.402Z,35.20
2018-07-20T11:33:27.964Z,35.00
2018-07-20T11:35:56.579Z,34.80
2018-07-20T11:38:25.177Z,34.70
2018-07-20T11:40:53.669Z,34.60
2018-07-20T11:43:22.002Z,34.40
2018-07-20T11:45:50.948Z,34.40
2018-07-20T11:48:19.598Z,34.30
2018-07-20T11:50:48.175Z,34.30
2018-07-20T11:53:16.794Z,34.10
2018-07-20T11:55:45.281Z,34.00
2018-07-20T11:58:13.741Z,33.90
2018-07-20T12:00:42.190Z,34.00
2018-07-20T12:03:10.904Z,34.10
2018-07-20T12:05:39.663Z,33.90
2018-07-20T12:08:08.082Z,33.80
2018-07-20T12:10:36.706Z,33.70
2018-07-20T12:13:05.067Z,33.50
2018-07-20T12:15:33.427Z,33.40
2018-07-20T12:18:02.016Z,33.90
2018-07-20T12:20:30.388Z,33.40
2018-07-20T12:22:58.888Z,33.40
2018-07-20T12:25:27.165Z,33.30
2018-07-20T12:27:55.385Z,33.50
2018-07-20T12:30:23.576Z,33.40
2018-07-20T12:32:52.248Z,33.30
2018-07-20T12:37:48.693Z,33.20
2018-07-20T12:40:17.361Z,33.20
2018-07-20T12:42:45.757Z,33.10
2018-07-20T12:45:14.260Z,33.10
2018-07-20T12:47:42.907Z,33.10
2018-07-20T12:50:11.448Z,32.90
2018-07-20T12:52:40.922Z,33.00
2018-07-20T12:55:09.795Z,33.00
2018-07-20T12:57:38.355Z,32.80
2018-07-20T13:00:07.153Z,32.80
2018-07-20T13:02:35.509Z,32.80
2018-07-20T13:05:03.853Z,32.70
2018-07-20T13:07:32.101Z,32.60
2018-07-20T13:10:00.321Z,32.60
2018-07-20T13:12:28.578Z,32.50
2018-07-20T13:14:56.792Z,32.40
2018-07-20T13:19:53.067Z,32.30
2018-07-20T13:22:21.266Z,32.20
2018-07-20T13:24:49.644Z,31.90
2018-07-20T13:27:17.953Z,31.80
2018-07-20T13:29:46.174Z,31.70
2018-07-20T13:32:14.378Z,31.80
2018-07-20T13:34:42.581Z,31.80
2018-07-20T13:37:10.799Z,31.60
2018-07-20T13:39:39.001Z,32.20
2018-07-20T13:42:07.261Z,31.60
2018-07-20T13:44:35.524Z,31.60
2018-07-20T13:47:03.969Z,31.60
2018-07-20T13:49:32.281Z,31.60
2018-07-20T13:52:00.501Z,31.70
2018-07-20T13:54:28.761Z,31.70
2018-07-20T13:56:57.326Z,31.70
2018-07-20T13:59:25.595Z,31.60
2018-07-20T14:01:53.810Z,31.50
2018-07-20T14:04:22.142Z,31.40
2018-07-20T14:06:50.560Z,32.80
2018-07-20T14:09:18.789Z,33.80
2018-07-20T14:11:46.998Z,33.60
2018-07-20T14:14:15.217Z,33.10
2018-07-20T14:16:43.519Z,32.80
2018-07-20T14:19:11.899Z,33.50
2018-07-20T14:21:40.145Z,35.10
2018-07-20T14:24:08.413Z,36.30
2018-07-20T14:26:36.634Z,36.80
2018-07-20T14:29:04.922Z,36.60
2018-07-20T14:31:33.195Z,36.40
2018-07-20T14:36:29.558Z,36.10
2018-07-20T14:38:58.093Z,36.00
2018-07-20T14:41:26.606Z,36.10
2018-07-20T14:43:54.862Z,35.40
2018-07-20T14:46:23.449Z,34.40
2018-07-20T14:48:51.698Z,33.60
2018-07-20T14:51:19.936Z,32.90
2018-07-20T14:53:48.170Z,32.30
2018-07-20T14:56:16.432Z,32.00
2018-07-20T14:58:44.639Z,31.60
2018-07-20T15:01:12.882Z,31.40
2018-07-20T15:03:41.078Z,31.40
2018-07-20T15:06:09.352Z,31.50
2018-07-20T15:08:37.611Z,31.50
2018-07-20T15:13:34.113Z,31.30
2018-07-20T15:16:02.338Z,31.00
2018-07-20T15:18:30.746Z,30.70
2018-07-20T15:20:58.953Z,30.70
2018-07-20T15:23:27.184Z,30.80
2018-07-20T15:25:55.422Z,30.80
2018-07-20T15:28:23.622Z,31.30
2018-07-20T15:30:51.869Z,30.50
2018-07-20T15:33:20.172Z,30.50
2018-07-20T15:35:48.382Z,30.40
2018-07-20T15:38:16.686Z,30.50
2018-07-20T15:40:44.930Z,30.50
2018-07-20T15:43:13.306Z,30.40
2018-07-20T15:45:51.816Z,30.30
2018-07-20T15:48:09.729Z,30.40
2018-07-20T15:50:37.941Z,30.40
2018-07-20T15:53:37.222Z,30.30
2018-07-20T15:55:35.453Z,30.30
2018-07-20T15:58:03.712Z,31.00
2018-07-20T16:00:31.914Z,30.50
2018-07-20T16:03:00.138Z,30.50
2018-07-20T16:05:28.384Z,30.50
2018-07-20T16:07:56.624Z,30.40
2018-07-20T16:10:24.844Z,30.20
2018-07-20T16:12:53.049Z,30.10
2018-07-20T16:15:21.250Z,30.00
2018-07-20T16:17:49.468Z,30.00
2018-07-20T16:20:17.935Z,30.00
2018-07-20T16:22:46.183Z,30.10
2018-07-20T16:25:14.379Z,30.10
2018-07-20T16:27:42.610Z,30.00
2018-07-20T16:30:10.855Z,30.00
2018-07-20T16:32:39.090Z,30.00
2018-07-20T16:37:36.360Z,30.20
2018-07-20T16:40:05.069Z,30.10
2018-07-20T16:42:33.252Z,30.00
2018-07-20T16:45:01.509Z,30.00
2018-07-20T16:47:29.771Z,29.90
2018-07-20T16:49:58.016Z,29.70
2018-07-20T16:52:26.269Z,29.50
2018-07-20T16:54:54.552Z,30.00
2018-07-20T16:57:22.813Z,29.60
2018-07-20T16:59:51.145Z,29.70
2018-07-20T17:02:19.345Z,29.90
2018-07-20T17:04:47.556Z,29.90
2018-07-20T17:07:15.852Z,30.00
2018-07-20T17:09:44.243Z,30.10
2018-07-20T17:12:12.466Z,30.30
2018-07-20T17:14:40.937Z,30.50
2018-07-20T17:17:09.219Z,30.60
2018-07-20T17:19:37.451Z,31.00
2018-07-20T17:22:05.752Z,31.60
2018-07-20T17:24:34.095Z,31.60
2018-07-20T17:27:02.353Z,31.60
2018-07-20T17:29:30.546Z,31.60
2018-07-20T17:31:58.781Z,31.50
2018-07-20T17:34:27.023Z,31.50
2018-07-20T17:36:55.228Z,31.60
2018-07-20T17:39:23.483Z,31.50
2018-07-20T17:41:51.718Z,31.50
2018-07-20T17:44:19.942Z,31.60
2018-07-20T17:46:48.424Z,31.60
2018-07-20T17:49:16.633Z,31.60
2018-07-20T17:51:44.870Z,31.70
2018-07-20T17:54:13.077Z,31.80
2018-07-20T17:56:41.293Z,32.00
2018-07-20T17:59:09.528Z,32.00
2018-07-20T18:01:37.781Z,32.00
2018-07-20T18:04:06.058Z,32.00
2018-07-20T18:06:34.373Z,32.60
2018-07-20T18:09:02.617Z,32.10
2018-07-20T18:11:30.835Z,32.30
2018-07-20T18:13:59.077Z,32.30
2018-07-20T18:16:27.281Z,32.30
2018-07-20T18:18:55.499Z,32.30
2018-07-20T18:21:23.734Z,33.00
2018-07-20T18:23:51.958Z,32.40
2018-07-20T18:26:20.160Z,32.50
2018-07-20T18:28:48.416Z,32.50
2018-07-20T18:31:16.614Z,32.60
2018-07-20T18:33:44.880Z,32.70
2018-07-20T18:36:13.908Z,32.80
2018-07-20T18:38:42.122Z,33.00
2018-07-20T18:41:10.341Z,32.90
2018-07-20T18:43:38.545Z,32.90
2018-07-20T18:46:06.838Z,32.90
2018-07-20T18:48:35.081Z,33.00
2018-07-20T18:51:03.334Z,33.10
2018-07-20T18:53:31.545Z,33.10
2018-07-20T18:55:59.828Z,33.20
2018-07-20T18:58:28.898Z,33.30
2018-07-20T19:00:57.178Z,33.30
2018-07-20T19:03:25.384Z,33.50
2018-07-20T19:05:53.598Z,33.70
2018-07-20T19:08:21.813Z,33.90
2018-07-20T19:10:50.058Z,34.10
2018-07-20T19:13:18.383Z,34.40
2018-07-20T19:15:46.605Z,34.60
2018-07-20T19:18:14.818Z,34.80
2018-07-20T19:20:43.026Z,35.00
2018-07-20T19:23:11.383Z,35.20
2018-07-20T19:25:39.598Z,35.30
2018-07-20T19:28:07.854Z,35.40
2018-07-20T19:30:36.078Z,35.60
2018-07-20T19:33:04.300Z,35.60
2018-07-20T19:35:32.569Z,35.80
2018-07-20T19:38:00.802Z,35.90
2018-07-20T19:40:29.087Z,36.10
2018-07-20T19:42:57.242Z,36.30
2018-07-20T19:45:25.466Z,36.40
2018-07-20T19:47:53.672Z,36.60
2018-07-20T19:50:21.891Z,36.70
2018-07-20T19:52:50.130Z,36.90
2018-07-20T19:55:18.340Z,37.30
2018-07-20T19:57:46.572Z,37.30
2018-07-20T20:00:14.775Z,37.60
2018-07-20T20:02:42.996Z,37.70
2018-07-20T20:05:11.024Z,37.90
2018-07-20T20:07:39.258Z,38.10
2018-07-20T20:10:07.705Z,38.20
2018-07-20T20:12:35.966Z,38.40
2018-07-20T20:15:04.571Z,38.60
2018-07-20T20:17:32.773Z,38.80
2018-07-20T20:20:00.992Z,39.00
2018-07-20T20:22:29.274Z,39.10
2018-07-20T20:24:57.513Z,39.30
2018-07-20T20:27:25.717Z,39.60
2018-07-20T20:29:53.925Z,39.90
2018-07-20T20:32:22.202Z,40.10
2018-07-20T20:34:50.450Z,40.30
2018-07-20T20:37:18.664Z,40.40
2018-07-20T20:39:47.054Z,40.50
2018-07-20T20:42:15.270Z,40.60
2018-07-20T20:44:43.473Z,40.80
2018-07-20T20:47:11.700Z,40.90
2018-07-20T20:49:39.922Z,41.00
2018-07-20T20:52:08.149Z,40.90
2018-07-20T20:54:36.362Z,40.90
2018-07-20T20:57:04.573Z,41.00
2018-07-20T20:59:32.841Z,41.10
2018-07-20T21:02:01.039Z,41.20
2018-07-20T21:04:29.261Z,41.40
2018-07-20T21:06:57.473Z,41.50
2018-07-20T21:09:25.746Z,41.50
2018-07-20T21:11:54.019Z,41.50
2018-07-20T21:14:22.197Z,41.40
2018-07-20T21:16:51.165Z,41.30
2018-07-20T21:19:19.376Z,41.30
2018-07-20T21:21:47.605Z,41.30
2018-07-20T21:24:15.832Z,41.30
2018-07-20T21:26:44.058Z,41.40
2018-07-20T21:29:12.253Z,41.40
2018-07-20T21:31:40.482Z,41.50
2018-07-20T21:34:08.822Z,41.40
2018-07-20T21:36:37.093Z,41.60
2018-07-20T21:39:07.969Z,41.60
2018-07-20T21:44:04.623Z,41.30
2018-07-20T21:46:32.886Z,41.70
2018-07-20T21:49:01.086Z,41.80
2018-07-20T21:51:29.313Z,41.90
2018-07-20T21:53:57.513Z,42.60
2018-07-20T21:56:25.859Z,42.00
2018-07-20T21:58:54.061Z,42.10
2018-07-20T22:01:22.273Z,42.20
2018-07-20T22:03:50.501Z,42.50
2018-07-20T22:06:18.716Z,42.90
2018-07-20T22:08:46.942Z,43.10
2018-07-20T22:11:15.146Z,43.40
2018-07-20T22:13:43.384Z,43.50
2018-07-20T22:16:11.590Z,43.60
2018-07-20T22:18:39.806Z,43.60
2018-07-20T22:23:35.977Z,43.80
2018-07-20T22:26:04.247Z,44.10
2018-07-20T22:28:32.470Z,44.30
2018-07-20T22:31:00.686Z,44.50
2018-07-20T22:33:28.918Z,44.50
2018-07-20T22:35:57.138Z,44.60
2018-07-20T22:38:25.374Z,44.70
2018-07-20T22:40:53.598Z,44.90
2018-07-20T22:43:21.809Z,44.90
2018-07-20T22:45:50.016Z,45.10
2018-07-20T22:48:18.289Z,45.00
2018-07-20T22:50:46.539Z,45.00
2018-07-20T22:53:14.791Z,45.10
2018-07-20T22:55:42.999Z,45.20
2018-07-20T22:58:11.198Z,45.30
2018-07-20T23:00:39.436Z,45.30
2018-07-20T23:03:07.701Z,45.50
2018-07-20T23:05:35.920Z,45.50
2018-07-20T23:10:32.615Z,45.60
2018-07-20T23:13:00.822Z,45.50
2018-07-20T23:15:29.024Z,45.50
2018-07-20T23:17:58.276Z,45.60
2018-07-20T23:20:26.488Z,45.80
2018-07-20T23:22:54.717Z,45.90
2018-07-20T23:25:22.929Z,46.10
2018-07-20T23:27:51.149Z,46.30
2018-07-20T23:30:19.373Z,46.40
2018-07-20T23:32:47.578Z,46.50
2018-07-20T23:35:15.802Z,46.60
2018-07-20T23:37:44.271Z,46.60
2018-07-20T23:40:12.486Z,46.70
2018-07-20T23:42:40.685Z,46.80
2018-07-20T23:45:08.928Z,46.90
2018-07-20T23:47:37.145Z,46.90
2018-07-20T23:52:33.677Z,47.10
2018-07-20T23:55:01.876Z,47.30
2018-07-20T23:57:30.106Z,47.60
2018-07-20T23:59:58.299Z,47.80
